createdAt,value
2022-12-08T00:01:32.978Z,50.54
2022-12-08T00:04:01.745Z,50.13
2022-12-08T00:06:52.538Z,50.16
2022-12-08T00:09:23.484Z,49.78
2022-12-08T00:11:55.619Z,49.80
2022-12-08T00:14:25.410Z,49.97
2022-12-08T00:16:53.172Z,50.02
2022-12-08T00:19:21.406Z,50.40
2022-12-08T00:21:48.664Z,50.38
2022-12-08T00:24:15.895Z,50.57
2022-12-08T00:26:43.280Z,50.14
2022-12-08T00:29:15.832Z,50.85
2022-12-08T00:31:44.719Z,50.78
2022-12-08T00:34:13.191Z,51.02
2022-12-08T00:36:40.626Z,50.54
2022-12-08T00:39:08.329Z,51.17
2022-12-08T00:41:53.780Z,51.44
2022-12-08T00:44:20.897Z,52.09
2022-12-08T00:46:49.171Z,51.36
2022-12-08T00:49:17.054Z,51.67
2022-12-08T00:51:44.504Z,50.93
2022-12-08T00:54:12.051Z,51.13
2022-12-08T00:56:39.538Z,51.11
2022-12-08T00:59:08.386Z,50.84
2022-12-08T01:01:36.412Z,51.18
2022-12-08T01:04:08.654Z,50.93
2022-12-08T01:06:36.455Z,51.26
2022-12-08T01:09:05.485Z,51.19
2022-12-08T01:11:32.978Z,51.06
2022-12-08T01:14:00.450Z,50.81
2022-12-08T01:16:30.845Z,50.31
2022-12-08T01:18:59.151Z,50.18
2022-12-08T01:21:27.592Z,50.61
2022-12-08T01:23:55.844Z,50.85
2022-12-08T01:26:22.951Z,51.45
2022-12-08T01:28:50.818Z,51.51
2022-12-08T01:31:20.346Z,51.80
2022-12-08T01:33:48.456Z,51.37
2022-12-08T01:36:27.709Z,51.75
2022-12-08T01:38:57.811Z,51.41
2022-12-08T01:41:27.859Z,51.17
2022-12-08T01:44:24.225Z,51.41
2022-12-08T01:46:53.730Z,51.42
2022-12-08T01:49:34.647Z,51.66
2022-12-08T01:52:15.098Z,51.67
2022-12-08T01:54:56.864Z,51.74
2022-12-08T01:57:35.151Z,51.60
2022-12-08T02:00:14.235Z,52.10
2022-12-08T02:03:03.394Z,52.86
2022-12-08T02:05:34.407Z,51.92
2022-12-08T02:08:06.965Z,52.06
2022-12-08T02:10:37.511Z,51.80
2022-12-08T02:13:07.049Z,52.05
2022-12-08T02:15:40.364Z,51.42
2022-12-08T02:18:25.876Z,51.90
2022-12-08T02:21:11.579Z,52.23
2022-12-08T02:24:26.051Z,51.62
2022-12-08T02:27:07.931Z,51.47
2022-12-08T02:30:07.969Z,52.25
2022-12-08T02:33:12.760Z,51.68
2022-12-08T02:35:45.995Z,52.48
2022-12-08T02:38:29.221Z,52.74
2022-12-08T02:41:32.538Z,53.05
2022-12-08T02:44:06.637Z,54.26
2022-12-08T02:46:40.106Z,54.35
2022-12-08T02:49:07.983Z,54.80
2022-12-08T02:51:35.134Z,54.97
2022-12-08T02:54:03.699Z,54.88
2022-12-08T02:56:42.964Z,55.21
2022-12-08T02:59:37.704Z,55.49
2022-12-08T03:02:28.097Z,55.15
2022-12-08T03:05:08.746Z,55.27
2022-12-08T03:07:44.252Z,55.23
2022-12-08T03:10:20.953Z,54.89
2022-12-08T03:12:59.398Z,55.15
2022-12-08T03:15:27.797Z,55.42
2022-12-08T03:17:58.425Z,55.21
2022-12-08T03:20:28.136Z,55.50
2022-12-08T03:22:59.176Z,55.91
2022-12-08T03:25:32.225Z,55.85
2022-12-08T03:28:00.436Z,55.42
2022-12-08T03:30:32.417Z,55.39
2022-12-08T03:33:07.251Z,56.02
2022-12-08T03:35:38.027Z,55.74
2022-12-08T03:38:14.452Z,55.19
2022-12-08T03:40:42.429Z,54.68
2022-12-08T03:43:10.035Z,55.11
2022-12-08T03:45:37.176Z,55.08
2022-12-08T03:48:04.334Z,55.36
2022-12-08T03:50:31.401Z,55.26
2022-12-08T03:52:58.467Z,55.62
2022-12-08T03:55:25.650Z,55.44
2022-12-08T03:57:52.688Z,55.03
2022-12-08T04:00:20.070Z,54.62
2022-12-08T04:02:47.493Z,55.88
2022-12-08T04:05:14.710Z,55.63
2022-12-08T04:07:41.761Z,56.19
2022-12-08T04:10:09.439Z,56.13
2022-12-08T04:12:36.883Z,56.35
2022-12-08T04:15:04.167Z,56.47
2022-12-08T04:17:31.581Z,57.01
2022-12-08T04:19:58.837Z,56.64
2022-12-08T04:22:25.888Z,56.33
2022-12-08T04:24:53.240Z,55.95
2022-12-08T04:27:20.582Z,56.02
2022-12-08T04:29:47.628Z,56.16
2022-12-08T04:32:14.835Z,55.46
2022-12-08T04:34:41.905Z,55.43
2022-12-08T04:37:09.281Z,55.36
2022-12-08T04:39:36.600Z,55.13
2022-12-08T04:42:03.803Z,54.89
2022-12-08T04:44:30.961Z,54.88
2022-12-08T04:46:58.099Z,55.51
2022-12-08T04:49:25.238Z,55.49
2022-12-08T04:51:52.367Z,55.27
2022-12-08T04:54:19.413Z,55.11
2022-12-08T04:56:46.691Z,54.34
2022-12-08T04:59:13.829Z,54.46
2022-12-08T05:01:41.321Z,53.65
2022-12-08T05:04:08.467Z,53.91
2022-12-08T05:06:35.592Z,53.99
2022-12-08T05:09:02.662Z,53.60
2022-12-08T05:11:30.116Z,53.84
2022-12-08T05:13:57.943Z,53.40
2022-12-08T05:16:25.208Z,52.86
2022-12-08T05:18:52.366Z,52.61
2022-12-08T05:21:20.642Z,52.44
2022-12-08T05:23:47.776Z,51.98
2022-12-08T05:26:15.504Z,52.28
2022-12-08T05:28:43.629Z,51.82
2022-12-08T05:31:13.229Z,52.21
2022-12-08T05:33:40.666Z,51.86
2022-12-08T05:36:08.743Z,52.22
2022-12-08T05:38:36.547Z,51.54
2022-12-08T05:41:05.778Z,51.15
2022-12-08T05:43:32.939Z,51.53
2022-12-08T05:46:01.006Z,52.05
2022-12-08T05:48:28.362Z,51.08
2022-12-08T05:50:55.418Z,51.85
2022-12-08T05:53:22.542Z,51.86
2022-12-08T05:55:49.788Z,52.33
2022-12-08T05:58:20.540Z,52.06
2022-12-08T06:00:48.849Z,51.86
2022-12-08T06:03:20.457Z,51.66
2022-12-08T06:05:48.428Z,51.49
2022-12-08T06:08:16.124Z,52.18
2022-12-08T06:10:45.009Z,51.78
2022-12-08T06:13:12.624Z,52.52
2022-12-08T06:15:40.575Z,52.68
2022-12-08T06:18:08.884Z,52.70
2022-12-08T06:20:36.005Z,53.29
2022-12-08T06:23:04.418Z,53.80
2022-12-08T06:25:31.580Z,54.00
2022-12-08T06:27:58.884Z,53.86
2022-12-08T06:30:27.822Z,54.14
2022-12-08T06:32:55.120Z,54.41
2022-12-08T06:35:22.221Z,53.85
2022-12-08T06:37:51.626Z,53.70
2022-12-08T06:40:18.927Z,53.80
2022-12-08T06:42:46.986Z,53.99
2022-12-08T06:45:18.239Z,54.08
2022-12-08T06:47:45.631Z,53.62
2022-12-08T06:50:14.609Z,53.40
2022-12-08T06:52:55.777Z,53.22
2022-12-08T06:55:51.230Z,53.92
2022-12-08T06:58:15.532Z,53.85
2022-12-08T07:00:43.607Z,53.52
2022-12-08T07:03:12.648Z,53.66
2022-12-08T07:05:40.016Z,53.35
2022-12-08T07:08:08.979Z,53.56
2022-12-08T07:10:36.677Z,53.50
2022-12-08T07:13:03.785Z,53.45
2022-12-08T07:15:31.376Z,53.73
2022-12-08T07:18:00.359Z,53.39
2022-12-08T07:20:28.287Z,53.14
2022-12-08T07:22:58.740Z,52.73
2022-12-08T07:25:26.042Z,53.41
2022-12-08T07:27:54.009Z,52.84
2022-12-08T07:30:21.405Z,52.40
2022-12-08T07:32:48.591Z,52.05
2022-12-08T07:35:15.741Z,52.24
2022-12-08T07:37:43.023Z,52.14
2022-12-08T07:40:10.813Z,52.53
2022-12-08T07:42:38.407Z,52.94
2022-12-08T07:45:05.993Z,52.51
2022-12-08T07:47:33.299Z,53.13
2022-12-08T07:50:00.439Z,53.26
2022-12-08T07:52:27.543Z,52.98
2022-12-08T07:54:54.630Z,52.56
2022-12-08T07:57:21.886Z,52.11
2022-12-08T07:59:49.032Z,52.49
2022-12-08T08:02:24.943Z,52.57
2022-12-08T08:04:53.279Z,52.73
2022-12-08T08:07:20.924Z,53.08
2022-12-08T08:09:48.184Z,52.33
2022-12-08T08:12:30.921Z,53.00
2022-12-08T08:15:01.144Z,53.10
2022-12-08T08:17:29.925Z,53.39
2022-12-08T08:19:57.667Z,53.27
2022-12-08T08:22:31.022Z,53.51
2022-12-08T08:24:58.034Z,53.42
2022-12-08T08:27:27.014Z,53.37
2022-12-08T08:29:54.278Z,53.65
2022-12-08T08:32:21.734Z,53.81
2022-12-08T08:34:51.611Z,53.78
2022-12-08T08:37:19.006Z,53.61
2022-12-08T08:39:46.247Z,54.17
2022-12-08T08:42:13.491Z,54.32
2022-12-08T08:44:40.682Z,54.51
2022-12-08T08:47:09.250Z,54.95
2022-12-08T08:49:36.962Z,54.48
2022-12-08T08:52:05.603Z,55.03
2022-12-08T08:54:33.846Z,54.98
2022-12-08T08:57:01.125Z,54.93
2022-12-08T08:59:28.838Z,55.00
2022-12-08T09:01:56.528Z,55.42
2022-12-08T09:04:23.897Z,55.07
2022-12-08T09:06:51.123Z,54.62
2022-12-08T09:09:18.629Z,54.75
2022-12-08T09:11:45.815Z,54.25
2022-12-08T09:14:15.440Z,54.15
2022-12-08T09:16:43.281Z,54.07
2022-12-08T09:19:10.747Z,53.79
2022-12-08T09:21:37.833Z,53.34
2022-12-08T09:24:05.209Z,53.58
2022-12-08T09:26:32.303Z,53.29
2022-12-08T09:29:00.662Z,53.60
2022-12-08T09:31:27.812Z,53.08
2022-12-08T09:33:55.038Z,53.10
2022-12-08T09:36:22.209Z,53.05
2022-12-08T09:38:50.513Z,53.18
2022-12-08T09:41:36.548Z,53.02
2022-12-08T09:44:13.614Z,53.21
2022-12-08T09:46:42.130Z,52.88
2022-12-08T09:49:17.883Z,53.20
2022-12-08T09:51:48.814Z,52.44
2022-12-08T09:54:21.656Z,52.81
2022-12-08T09:56:52.218Z,52.52
2022-12-08T09:59:30.573Z,53.05
2022-12-08T10:01:57.917Z,52.62
2022-12-08T10:04:35.068Z,52.74
2022-12-08T10:07:25.723Z,52.48
2022-12-08T10:10:15.591Z,52.57
2022-12-08T10:12:59.749Z,53.49
2022-12-08T10:15:33.428Z,53.28
2022-12-08T10:18:03.740Z,53.46
2022-12-08T10:20:40.907Z,53.55
2022-12-08T10:23:14.342Z,53.52
2022-12-08T10:25:46.412Z,53.19
2022-12-08T10:28:14.274Z,53.16
2022-12-08T10:30:42.776Z,52.85
2022-12-08T10:33:21.618Z,52.69
2022-12-08T10:35:56.681Z,52.84
2022-12-08T10:38:31.255Z,52.99
2022-12-08T10:41:01.565Z,52.60
2022-12-08T10:43:28.959Z,52.13
2022-12-08T10:46:28.023Z,52.78
2022-12-08T10:49:17.212Z,52.02
2022-12-08T10:51:44.484Z,52.41
2022-12-08T10:54:35.879Z,52.17
2022-12-08T10:57:03.484Z,51.81
2022-12-08T10:59:34.245Z,51.68
2022-12-08T11:02:01.764Z,51.60
2022-12-08T11:04:38.404Z,51.85
2022-12-08T11:07:09.049Z,51.90
2022-12-08T11:09:49.004Z,52.55
2022-12-08T11:12:18.545Z,51.98
2022-12-08T11:14:50.859Z,52.15
2022-12-08T11:17:27.514Z,52.34
2022-12-08T11:20:15.044Z,52.26
2022-12-08T11:22:51.131Z,51.52
2022-12-08T11:25:24.969Z,51.82
2022-12-08T11:27:58.932Z,51.59
2022-12-08T11:30:37.948Z,51.75
2022-12-08T11:33:17.323Z,51.93
2022-12-08T11:35:51.726Z,51.41
2022-12-08T11:38:24.661Z,51.17
2022-12-08T11:41:15.839Z,51.47
2022-12-08T11:44:17.262Z,51.42
2022-12-08T11:46:52.764Z,51.46
2022-12-08T11:49:20.821Z,51.90
2022-12-08T11:52:05.322Z,51.69
2022-12-08T11:55:05.591Z,51.63
2022-12-08T11:57:33.053Z,51.41
2022-12-08T12:00:02.327Z,51.75
2022-12-08T12:02:46.363Z,51.60
2022-12-08T12:06:30.801Z,51.86
2022-12-08T12:08:51.107Z,51.74
2022-12-08T12:11:49.058Z,52.12
2022-12-08T12:14:39.897Z,52.16
2022-12-08T12:17:22.372Z,52.24
2022-12-08T12:19:50.309Z,52.65
2022-12-08T12:22:21.685Z,52.70
2022-12-08T12:24:52.688Z,52.68
2022-12-08T12:27:45.206Z,53.24
2022-12-08T12:30:24.566Z,53.29
2022-12-08T12:33:00.040Z,52.92
2022-12-08T12:35:38.065Z,53.43
2022-12-08T12:38:29.242Z,53.04
2022-12-08T12:41:05.562Z,53.37
2022-12-08T12:43:38.430Z,53.08
2022-12-08T12:46:25.745Z,52.93
2022-12-08T12:48:53.921Z,52.67
2022-12-08T12:51:40.224Z,53.38
2022-12-08T12:54:43.057Z,52.86
2022-12-08T12:57:13.069Z,52.55
2022-12-08T12:59:54.643Z,53.27
2022-12-08T13:02:40.279Z,53.53
2022-12-08T13:05:13.569Z,53.17
2022-12-08T13:07:53.973Z,52.94
2022-12-08T13:10:26.521Z,53.30
2022-12-08T13:13:10.593Z,53.46
2022-12-08T13:15:48.984Z,53.48
2022-12-08T13:18:19.000Z,53.54
2022-12-08T13:20:52.629Z,53.56
2022-12-08T13:23:46.369Z,54.21
2022-12-08T13:26:24.098Z,54.23
2022-12-08T13:29:01.513Z,54.24
2022-12-08T13:31:46.803Z,53.78
2022-12-08T13:34:45.570Z,53.92
2022-12-08T13:37:13.585Z,53.49
2022-12-08T13:39:40.764Z,52.66
2022-12-08T13:42:17.353Z,52.49
2022-12-08T13:45:39.757Z,52.65
2022-12-08T13:48:23.277Z,52.06
2022-12-08T13:53:10.309Z,52.00
2022-12-08T13:59:34.802Z,51.26
2022-12-08T14:02:09.580Z,51.40
2022-12-08T14:05:09.216Z,51.81
2022-12-08T14:07:24.525Z,51.91
2022-12-08T14:09:52.924Z,52.20
2022-12-08T14:12:26.878Z,52.12
2022-12-08T14:15:04.138Z,52.28
2022-12-08T14:17:33.177Z,52.47
2022-12-08T14:20:02.629Z,52.66
2022-12-08T14:22:36.668Z,52.83
2022-12-08T14:25:06.323Z,52.35
2022-12-08T14:27:36.599Z,52.31
2022-12-08T14:30:06.392Z,52.55
2022-12-08T14:32:38.364Z,52.64
2022-12-08T14:35:08.577Z,52.18
2022-12-08T14:37:43.601Z,51.95
2022-12-08T14:40:24.881Z,51.51
2022-12-08T14:43:05.333Z,51.18
2022-12-08T14:45:34.943Z,51.21
2022-12-08T14:48:26.068Z,51.35
2022-12-08T14:51:24.232Z,50.95
2022-12-08T14:54:07.016Z,50.74
2022-12-08T14:56:59.364Z,50.91
2022-12-08T14:59:31.781Z,51.30
2022-12-08T15:02:24.459Z,51.57
2022-12-08T15:05:03.527Z,51.73
2022-12-08T15:07:52.556Z,52.13
2022-12-08T15:10:29.703Z,52.53
2022-12-08T15:13:02.745Z,52.43
2022-12-08T15:15:31.968Z,52.32
2022-12-08T15:18:03.811Z,52.43
2022-12-08T15:20:34.986Z,52.12
2022-12-08T15:23:04.174Z,52.17
2022-12-08T15:25:31.917Z,51.94
2022-12-08T15:27:59.310Z,52.22
2022-12-08T15:30:26.705Z,52.32
2022-12-08T15:32:56.100Z,52.62
2022-12-08T15:35:23.532Z,52.69
2022-12-08T15:37:50.949Z,52.40
2022-12-08T15:40:20.868Z,52.45
2022-12-08T15:42:49.093Z,52.18
2022-12-08T15:45:17.633Z,52.44
2022-12-08T15:47:45.716Z,52.75
2022-12-08T15:50:18.444Z,53.15
2022-12-08T15:52:45.622Z,52.90
2022-12-08T15:55:18.145Z,52.97
2022-12-08T16:00:55.673Z,53.66
2022-12-08T16:04:27.593Z,53.98
2022-12-08T16:09:12.531Z,53.42
2022-12-08T16:12:07.899Z,53.61
2022-12-08T16:17:24.566Z,52.80
2022-12-08T16:19:52.068Z,53.31
2022-12-08T16:25:19.455Z,53.06
2022-12-08T16:30:42.625Z,53.09
2022-12-08T16:33:12.009Z,52.74
2022-12-08T16:35:39.944Z,52.87
2022-12-08T16:38:07.223Z,53.04
2022-12-08T16:40:54.554Z,53.40
2022-12-08T16:43:21.715Z,53.03
2022-12-08T16:45:48.979Z,53.07
2022-12-08T16:48:16.602Z,52.79
2022-12-08T16:50:45.892Z,53.07
2022-12-08T16:53:13.730Z,53.35
2022-12-08T16:55:41.229Z,52.88
2022-12-08T16:58:08.481Z,53.00
2022-12-08T17:00:37.257Z,53.19
2022-12-08T17:03:05.990Z,52.47
2022-12-08T17:05:33.153Z,52.71
2022-12-08T17:08:00.424Z,52.54
2022-12-08T17:10:31.813Z,52.90
2022-12-08T17:12:59.036Z,52.57
2022-12-08T17:15:26.151Z,52.53
2022-12-08T17:17:54.159Z,52.99
2022-12-08T17:20:25.239Z,52.75
2022-12-08T17:22:59.592Z,52.69
2022-12-08T17:25:27.362Z,52.43
2022-12-08T17:27:56.469Z,53.02
2022-12-08T17:30:24.212Z,53.14
2022-12-08T17:32:52.933Z,53.04
2022-12-08T17:35:20.150Z,53.22
2022-12-08T17:37:47.668Z,52.62
2022-12-08T17:40:14.831Z,53.03
2022-12-08T17:42:42.475Z,52.80
2022-12-08T17:45:10.289Z,52.59
2022-12-08T17:47:37.956Z,52.75
2022-12-08T17:50:06.583Z,52.15
2022-12-08T17:52:34.235Z,52.23
2022-12-08T17:55:01.716Z,52.65
2022-12-08T17:57:31.931Z,52.53
2022-12-08T17:59:59.399Z,53.10
2022-12-08T18:02:26.563Z,53.06
2022-12-08T18:04:53.820Z,53.03
2022-12-08T18:07:21.041Z,52.81
2022-12-08T18:09:48.341Z,53.17
2022-12-08T18:12:20.694Z,53.29
2022-12-08T18:14:53.080Z,53.19
2022-12-08T18:17:20.819Z,53.70
2022-12-08T18:19:48.029Z,53.35
2022-12-08T18:22:16.384Z,53.18
2022-12-08T18:24:44.194Z,53.44
2022-12-08T18:27:12.197Z,53.42
2022-12-08T18:29:40.271Z,53.13
2022-12-08T18:32:08.498Z,53.56
2022-12-08T18:34:36.322Z,53.53
2022-12-08T18:37:03.651Z,53.19
2022-12-08T18:39:33.567Z,53.48
2022-12-08T18:42:21.733Z,53.47
2022-12-08T18:44:56.259Z,53.25
2022-12-08T18:47:23.768Z,53.19
2022-12-08T18:49:51.008Z,53.33
2022-12-08T18:52:24.852Z,53.25
2022-12-08T18:55:06.208Z,53.65
2022-12-08T18:57:36.514Z,53.37
2022-12-08T19:00:06.274Z,53.61
2022-12-08T19:02:34.203Z,53.47
2022-12-08T19:05:02.122Z,53.44
2022-12-08T19:07:30.980Z,53.58
2022-12-08T19:09:59.764Z,53.41
2022-12-08T19:12:27.678Z,53.69
2022-12-08T19:14:54.959Z,54.10
2022-12-08T19:17:22.248Z,54.41
2022-12-08T19:19:49.499Z,54.89
2022-12-08T19:22:16.901Z,54.92
2022-12-08T19:24:44.266Z,55.11
2022-12-08T19:27:11.402Z,54.84
2022-12-08T19:29:38.457Z,55.13
2022-12-08T19:32:06.144Z,54.91
2022-12-08T19:34:33.374Z,54.36
2022-12-08T19:37:00.409Z,54.73
2022-12-08T19:39:46.633Z,54.49
2022-12-08T19:42:35.330Z,54.13
2022-12-08T19:45:14.350Z,53.87
2022-12-08T19:47:42.395Z,54.06
2022-12-08T19:50:30.954Z,54.59
2022-12-08T19:52:58.523Z,54.27
2022-12-08T19:55:26.420Z,54.73
2022-12-08T19:57:54.509Z,54.67
2022-12-08T20:00:22.064Z,54.55
2022-12-08T20:02:49.567Z,54.08
2022-12-08T20:05:16.906Z,53.57
2022-12-08T20:07:44.200Z,53.36
2022-12-08T20:10:34.056Z,53.69
2022-12-08T20:13:20.717Z,53.51
2022-12-08T20:15:48.187Z,53.23
2022-12-08T20:18:15.821Z,53.57
2022-12-08T20:20:44.909Z,53.83
2022-12-08T20:23:14.173Z,54.07
2022-12-08T20:25:43.598Z,54.28
2022-12-08T20:28:12.068Z,54.48
2022-12-08T20:30:43.168Z,54.22
2022-12-08T20:33:13.771Z,54.32
2022-12-08T20:35:41.175Z,54.44
2022-12-08T20:38:13.021Z,54.19
2022-12-08T20:40:44.411Z,54.01
2022-12-08T20:43:11.789Z,54.27
2022-12-08T20:45:39.479Z,54.44
2022-12-08T20:48:06.760Z,54.57
2022-12-08T20:50:36.172Z,54.44
2022-12-08T20:53:05.643Z,54.89
2022-12-08T20:55:32.722Z,54.22
2022-12-08T20:58:00.835Z,54.43
2022-12-08T21:00:28.264Z,54.50
2022-12-08T21:02:57.040Z,54.56
2022-12-08T21:05:28.729Z,55.08
2022-12-08T21:07:56.198Z,54.53
2022-12-08T21:10:23.448Z,55.29
2022-12-08T21:12:50.952Z,54.86
2022-12-08T21:15:18.321Z,54.85
2022-12-08T21:17:45.696Z,54.85
2022-12-08T21:20:16.416Z,54.75
2022-12-08T21:22:44.344Z,54.06
2022-12-08T21:25:11.689Z,54.13
2022-12-08T21:27:40.023Z,53.98
2022-12-08T21:30:09.529Z,54.05
2022-12-08T21:32:40.370Z,54.24
2022-12-08T21:35:08.390Z,54.40
2022-12-08T21:37:35.606Z,54.16
2022-12-08T21:40:03.352Z,54.52
2022-12-08T21:42:43.884Z,54.47
2022-12-08T21:45:14.200Z,54.38
2022-12-08T21:47:41.719Z,54.17
2022-12-08T21:50:09.950Z,54.68
2022-12-08T21:52:40.519Z,54.50
2022-12-08T21:55:08.732Z,54.66
2022-12-08T21:57:36.193Z,54.99
2022-12-08T22:00:04.915Z,54.91
2022-12-08T22:02:33.009Z,54.78
2022-12-08T22:05:00.260Z,55.15
2022-12-08T22:07:27.633Z,55.03
2022-12-08T22:09:55.119Z,54.88
2022-12-08T22:12:22.342Z,54.76
2022-12-08T22:14:51.193Z,54.56
2022-12-08T22:17:18.737Z,54.91
2022-12-08T22:19:46.145Z,54.22
2022-12-08T22:22:13.289Z,54.38
2022-12-08T22:24:40.533Z,54.68
2022-12-08T22:27:07.841Z,54.45
2022-12-08T22:29:35.292Z,54.71
2022-12-08T22:32:02.726Z,54.86
2022-12-08T22:34:30.179Z,55.30
2022-12-08T22:36:57.624Z,55.14
2022-12-08T22:39:24.676Z,55.06
2022-12-08T22:41:52.614Z,55.35
2022-12-08T22:44:19.709Z,55.31
2022-12-08T22:46:47.232Z,55.32
2022-12-08T22:49:14.573Z,55.65
2022-12-08T22:51:41.701Z,56.03
2022-12-08T22:54:11.251Z,55.46
2022-12-08T22:56:38.672Z,55.89
2022-12-08T22:59:06.209Z,55.58
2022-12-08T23:01:34.559Z,56.57
2022-12-08T23:04:02.449Z,56.47
2022-12-08T23:06:30.929Z,56.81
2022-12-08T23:08:59.259Z,56.96
2022-12-08T23:11:30.922Z,57.30
2022-12-08T23:14:00.479Z,56.87
2022-12-08T23:16:28.727Z,57.13
2022-12-08T23:18:57.014Z,57.06
2022-12-08T23:21:24.373Z,56.62
2022-12-08T23:23:51.543Z,56.74
2022-12-08T23:26:25.217Z,56.51
2022-12-08T23:28:52.761Z,56.50
2022-12-08T23:31:20.666Z,56.34
2022-12-08T23:33:48.016Z,56.71
2022-12-08T23:36:16.692Z,57.34
2022-12-08T23:38:44.196Z,57.15
2022-12-08T23:41:14.291Z,57.82
2022-12-08T23:43:50.413Z,58.35
2022-12-08T23:46:20.517Z,58.04
2022-12-08T23:48:47.987Z,57.67
2022-12-08T23:51:16.043Z,57.48
2022-12-08T23:53:44.058Z,57.96
2022-12-08T23:56:14.520Z,58.05
2022-12-08T23:58:43.142Z,58.17
